sensor_id;sensor_type;location;lat;lon;timestamp;P1;durP1;ratioP1;P2;durP2;ratioP2
7166;SDS011;3625;51.762;14.320;2023-08-01T00:01:33;5.93;;;3.00;;
7166;SDS011;3625;51.762;14.320;2023-08-01T00:04:06;4.05;;;3.10;;
7166;SDS011;3625;51.762;14.320;2023-08-01T00:06:40;3.80;;;3.17;;
7166;SDS011;3625;51.762;14.320;2023-08-01T00:09:09;4.78;;;3.10;;
7166;SDS011;3625;51.762;14.320;2023-08-01T00:11:37;3.75;;;3.25;;
7166;SDS011;3625;51.762;14.320;2023-08-01T00:14:06;3.47;;;3.00;;
7166;SDS011;3625;51.762;14.320;2023-08-01T00:16:36;3.10;;;2.80;;
7166;SDS011;3625;51.762;14.320;2023-08-01T00:19:07;4.25;;;3.13;;
7166;SDS011;3625;51.762;14.320;2023-08-01T00:21:36;5.35;;;3.90;;
7166;SDS011;3625;51.762;14.320;2023-08-01T00:24:05;5.60;;;3.50;;
7166;SDS011;3625;51.762;14.320;2023-08-01T00:26:36;4.57;;;3.25;;
7166;SDS011;3625;51.762;14.320;2023-08-01T00:29:05;4.30;;;3.00;;
7166;SDS011;3625;51.762;14.320;2023-08-01T00:31:36;4.60;;;3.30;;
7166;SDS011;3625;51.762;14.320;2023-08-01T00:34:04;5.13;;;3.30;;
7166;SDS011;3625;51.762;14.320;2023-08-01T00:36:33;5.45;;;3.28;;
7166;SDS011;3625;51.762;14.320;2023-08-01T00:39:02;4.85;;;3.42;;
7166;SDS011;3625;51.762;14.320;2023-08-01T00:41:32;4.97;;;3.17;;
7166;SDS011;3625;51.762;14.320;2023-08-01T00:44:01;3.70;;;3.25;;
7166;SDS011;3625;51.762;14.320;2023-08-01T00:46:31;4.80;;;3.08;;
7166;SDS011;3625;51.762;14.320;2023-08-01T00:49:02;4.80;;;3.40;;
7166;SDS011;3625;51.762;14.320;2023-08-01T00:51:31;3.88;;;3.30;;
7166;SDS011;3625;51.762;14.320;2023-08-01T00:54:00;3.83;;;3.13;;
7166;SDS011;3625;51.762;14.320;2023-08-01T00:56:29;4.28;;;3.10;;
7166;SDS011;3625;51.762;14.320;2023-08-01T00:59:07;4.50;;;3.33;;
7166;SDS011;3625;51.762;14.320;2023-08-01T01:01:35;4.43;;;3.20;;
7166;SDS011;3625;51.762;14.320;2023-08-01T01:08:16;4.63;;;3.40;;
7166;SDS011;3625;51.762;14.320;2023-08-01T01:10:46;3.83;;;3.47;;
7166;SDS011;3625;51.762;14.320;2023-08-01T01:13:14;5.75;;;3.13;;
7166;SDS011;3625;51.762;14.320;2023-08-01T01:15:43;5.00;;;3.38;;
7166;SDS011;3625;51.762;14.320;2023-08-01T01:18:12;5.32;;;3.47;;
7166;SDS011;3625;51.762;14.320;2023-08-01T01:20:42;4.68;;;3.30;;
7166;SDS011;3625;51.762;14.320;2023-08-01T01:23:11;5.07;;;3.80;;
7166;SDS011;3625;51.762;14.320;2023-08-01T01:25:40;5.15;;;4.03;;
7166;SDS011;3625;51.762;14.320;2023-08-01T01:28:10;4.95;;;3.58;;
7166;SDS011;3625;51.762;14.320;2023-08-01T01:30:41;4.47;;;3.30;;
7166;SDS011;3625;51.762;14.320;2023-08-01T01:33:12;5.45;;;3.20;;
7166;SDS011;3625;51.762;14.320;2023-08-01T01:35:43;4.05;;;3.03;;
7166;SDS011;3625;51.762;14.320;2023-08-01T01:38:12;5.15;;;3.20;;
7166;SDS011;3625;51.762;14.320;2023-08-01T01:40:42;5.32;;;3.78;;
7166;SDS011;3625;51.762;14.320;2023-08-01T01:43:10;4.25;;;3.17;;
7166;SDS011;3625;51.762;14.320;2023-08-01T01:45:39;5.47;;;3.28;;
7166;SDS011;3625;51.762;14.320;2023-08-01T01:48:09;6.53;;;3.28;;
7166;SDS011;3625;51.762;14.320;2023-08-01T01:50:38;3.33;;;3.03;;
7166;SDS011;3625;51.762;14.320;2023-08-01T01:53:08;4.28;;;3.53;;
7166;SDS011;3625;51.762;14.320;2023-08-01T01:55:37;5.03;;;3.30;;
7166;SDS011;3625;51.762;14.320;2023-08-01T01:58:06;5.38;;;2.97;;
7166;SDS011;3625;51.762;14.320;2023-08-01T02:00:35;6.13;;;4.03;;
7166;SDS011;3625;51.762;14.320;2023-08-01T02:03:05;3.97;;;3.20;;
7166;SDS011;3625;51.762;14.320;2023-08-01T02:05:36;3.33;;;3.03;;
7166;SDS011;3625;51.762;14.320;2023-08-01T02:08:09;6.57;;;3.70;;
7166;SDS011;3625;51.762;14.320;2023-08-01T02:10:38;4.07;;;3.47;;
7166;SDS011;3625;51.762;14.320;2023-08-01T02:13:07;4.88;;;3.88;;
7166;SDS011;3625;51.762;14.320;2023-08-01T02:15:36;4.20;;;3.33;;
7166;SDS011;3625;51.762;14.320;2023-08-01T02:18:04;3.88;;;3.47;;
7166;SDS011;3625;51.762;14.320;2023-08-01T02:20:33;4.55;;;3.35;;
7166;SDS011;3625;51.762;14.320;2023-08-01T02:23:02;5.18;;;2.90;;
7166;SDS011;3625;51.762;14.320;2023-08-01T02:25:37;4.70;;;3.50;;
7166;SDS011;3625;51.762;14.320;2023-08-01T02:28:08;3.90;;;3.55;;
7166;SDS011;3625;51.762;14.320;2023-08-01T02:30:37;6.38;;;3.70;;
7166;SDS011;3625;51.762;14.320;2023-08-01T02:33:06;4.13;;;3.47;;
7166;SDS011;3625;51.762;14.320;2023-08-01T02:35:35;5.45;;;3.42;;
7166;SDS011;3625;51.762;14.320;2023-08-01T02:38:03;6.10;;;3.88;;
7166;SDS011;3625;51.762;14.320;2023-08-01T02:40:32;4.60;;;3.53;;
7166;SDS011;3625;51.762;14.320;2023-08-01T02:43:02;4.90;;;3.35;;
7166;SDS011;3625;51.762;14.320;2023-08-01T02:45:31;6.00;;;3.55;;
7166;SDS011;3625;51.762;14.320;2023-08-01T02:47:59;4.57;;;3.17;;
7166;SDS011;3625;51.762;14.320;2023-08-01T02:50:28;3.65;;;2.97;;
7166;SDS011;3625;51.762;14.320;2023-08-01T02:52:57;5.68;;;3.58;;
7166;SDS011;3625;51.762;14.320;2023-08-01T02:55:25;5.05;;;3.35;;
7166;SDS011;3625;51.762;14.320;2023-08-01T02:57:54;4.15;;;3.45;;
7166;SDS011;3625;51.762;14.320;2023-08-01T03:00:24;5.57;;;3.55;;
7166;SDS011;3625;51.762;14.320;2023-08-01T03:02:52;5.65;;;3.95;;
7166;SDS011;3625;51.762;14.320;2023-08-01T03:05:21;4.95;;;3.50;;
7166;SDS011;3625;51.762;14.320;2023-08-01T03:07:50;3.95;;;3.45;;
7166;SDS011;3625;51.762;14.320;2023-08-01T03:10:18;6.50;;;3.88;;
7166;SDS011;3625;51.762;14.320;2023-08-01T03:13:02;5.00;;;3.40;;
7166;SDS011;3625;51.762;14.320;2023-08-01T03:15:32;5.50;;;3.95;;
7166;SDS011;3625;51.762;14.320;2023-08-01T03:18:01;5.00;;;3.30;;
7166;SDS011;3625;51.762;14.320;2023-08-01T03:20:30;4.97;;;3.20;;
7166;SDS011;3625;51.762;14.320;2023-08-01T03:22:59;4.43;;;3.53;;
7166;SDS011;3625;51.762;14.320;2023-08-01T03:25:28;4.25;;;3.50;;
7166;SDS011;3625;51.762;14.320;2023-08-01T03:27:57;3.92;;;3.45;;
7166;SDS011;3625;51.762;14.320;2023-08-01T03:30:27;5.38;;;3.33;;
7166;SDS011;3625;51.762;14.320;2023-08-01T03:33:24;5.57;;;3.80;;
7166;SDS011;3625;51.762;14.320;2023-08-01T03:35:54;3.53;;;3.20;;
7166;SDS011;3625;51.762;14.320;2023-08-01T03:38:23;5.38;;;3.45;;
7166;SDS011;3625;51.762;14.320;2023-08-01T03:40:54;5.32;;;3.30;;
7166;SDS011;3625;51.762;14.320;2023-08-01T03:43:23;6.45;;;3.83;;
7166;SDS011;3625;51.762;14.320;2023-08-01T03:45:52;6.13;;;3.35;;
7166;SDS011;3625;51.762;14.320;2023-08-01T03:48:20;4.82;;;3.63;;
7166;SDS011;3625;51.762;14.320;2023-08-01T03:50:50;4.35;;;3.50;;
7166;SDS011;3625;51.762;14.320;2023-08-01T03:53:19;4.38;;;3.60;;
7166;SDS011;3625;51.762;14.320;2023-08-01T03:55:48;4.05;;;3.47;;
7166;SDS011;3625;51.762;14.320;2023-08-01T03:58:17;5.75;;;3.72;;
7166;SDS011;3625;51.762;14.320;2023-08-01T04:00:48;4.22;;;3.80;;
7166;SDS011;3625;51.762;14.320;2023-08-01T04:03:18;4.70;;;3.72;;
7166;SDS011;3625;51.762;14.320;2023-08-01T04:05:48;4.20;;;3.80;;
7166;SDS011;3625;51.762;14.320;2023-08-01T04:08:18;4.93;;;3.38;;
7166;SDS011;3625;51.762;14.320;2023-08-01T04:10:47;3.92;;;3.53;;
7166;SDS011;3625;51.762;14.320;2023-08-01T04:13:16;3.53;;;3.22;;
7166;SDS011;3625;51.762;14.320;2023-08-01T04:15:45;3.72;;;3.08;;
7166;SDS011;3625;51.762;14.320;2023-08-01T04:18:13;3.92;;;3.33;;
7166;SDS011;3625;51.762;14.320;2023-08-01T04:20:42;3.88;;;3.47;;
7166;SDS011;3625;51.762;14.320;2023-08-01T04:23:12;4.65;;;3.70;;
7166;SDS011;3625;51.762;14.320;2023-08-01T04:25:41;4.25;;;3.83;;
7166;SDS011;3625;51.762;14.320;2023-08-01T04:28:11;5.95;;;4.13;;
7166;SDS011;3625;51.762;14.320;2023-08-01T04:30:40;4.10;;;3.47;;
7166;SDS011;3625;51.762;14.320;2023-08-01T04:33:08;4.15;;;3.58;;
7166;SDS011;3625;51.762;14.320;2023-08-01T04:35:37;4.38;;;3.45;;
7166;SDS011;3625;51.762;14.320;2023-08-01T04:38:06;4.75;;;3.30;;
7166;SDS011;3625;51.762;14.320;2023-08-01T04:40:38;4.22;;;3.30;;
7166;SDS011;3625;51.762;14.320;2023-08-01T04:43:07;4.80;;;3.60;;
7166;SDS011;3625;51.762;14.320;2023-08-01T04:45:36;5.03;;;3.50;;
7166;SDS011;3625;51.762;14.320;2023-08-01T04:48:06;3.63;;;3.13;;
7166;SDS011;3625;51.762;14.320;2023-08-01T04:50:35;4.03;;;3.33;;
7166;SDS011;3625;51.762;14.320;2023-08-01T04:53:04;4.07;;;3.22;;
7166;SDS011;3625;51.762;14.320;2023-08-01T04:55:32;5.75;;;3.28;;
7166;SDS011;3625;51.762;14.320;2023-08-01T04:58:03;4.22;;;3.05;;
7166;SDS011;3625;51.762;14.320;2023-08-01T05:00:31;3.60;;;3.30;;
7166;SDS011;3625;51.762;14.320;2023-08-01T05:03:00;5.30;;;2.92;;
7166;SDS011;3625;51.762;14.320;2023-08-01T05:05:28;4.22;;;3.45;;
7166;SDS011;3625;51.762;14.320;2023-08-01T05:07:57;3.53;;;3.22;;
7166;SDS011;3625;51.762;14.320;2023-08-01T05:10:26;4.60;;;3.63;;
7166;SDS011;3625;51.762;14.320;2023-08-01T05:12:54;4.72;;;3.25;;
7166;SDS011;3625;51.762;14.320;2023-08-01T05:15:25;4.00;;;3.53;;
7166;SDS011;3625;51.762;14.320;2023-08-01T05:17:57;4.80;;;3.40;;
7166;SDS011;3625;51.762;14.320;2023-08-01T05:20:25;3.88;;;3.47;;
7166;SDS011;3625;51.762;14.320;2023-08-01T05:22:57;5.70;;;3.78;;
7166;SDS011;3625;51.762;14.320;2023-08-01T05:25:26;5.13;;;3.70;;
7166;SDS011;3625;51.762;14.320;2023-08-01T05:27:55;3.65;;;3.17;;
7166;SDS011;3625;51.762;14.320;2023-08-01T05:30:25;4.18;;;3.78;;
7166;SDS011;3625;51.762;14.320;2023-08-01T05:32:53;4.80;;;3.35;;
7166;SDS011;3625;51.762;14.320;2023-08-01T05:35:22;3.35;;;3.05;;
7166;SDS011;3625;51.762;14.320;2023-08-01T05:37:50;3.78;;;3.38;;
7166;SDS011;3625;51.762;14.320;2023-08-01T05:40:19;3.45;;;3.05;;
7166;SDS011;3625;51.762;14.320;2023-08-01T05:42:48;3.53;;;3.05;;
7166;SDS011;3625;51.762;14.320;2023-08-01T05:45:16;4.90;;;3.33;;
7166;SDS011;3625;51.762;14.320;2023-08-01T05:47:47;4.05;;;3.17;;
7166;SDS011;3625;51.762;14.320;2023-08-01T05:50:15;3.55;;;3.17;;
7166;SDS011;3625;51.762;14.320;2023-08-01T05:52:44;3.40;;;3.10;;
7166;SDS011;3625;51.762;14.320;2023-08-01T05:55:13;3.47;;;3.03;;
7166;SDS011;3625;51.762;14.320;2023-08-01T05:57:42;4.25;;;2.83;;
7166;SDS011;3625;51.762;14.320;2023-08-01T06:00:11;3.60;;;2.60;;
7166;SDS011;3625;51.762;14.320;2023-08-01T06:02:41;3.65;;;2.90;;
7166;SDS011;3625;51.762;14.320;2023-08-01T06:05:11;3.80;;;3.35;;
7166;SDS011;3625;51.762;14.320;2023-08-01T06:07:40;5.50;;;3.20;;
7166;SDS011;3625;51.762;14.320;2023-08-01T06:10:09;3.72;;;3.42;;
7166;SDS011;3625;51.762;14.320;2023-08-01T06:12:38;3.53;;;3.20;;
7166;SDS011;3625;51.762;14.320;2023-08-01T06:15:06;4.28;;;3.63;;
7166;SDS011;3625;51.762;14.320;2023-08-01T06:17:35;4.55;;;3.75;;
7166;SDS011;3625;51.762;14.320;2023-08-01T06:20:04;5.55;;;3.42;;
7166;SDS011;3625;51.762;14.320;2023-08-01T06:22:36;3.90;;;3.15;;
7166;SDS011;3625;51.762;14.320;2023-08-01T06:25:06;4.10;;;3.70;;
7166;SDS011;3625;51.762;14.320;2023-08-01T06:27:35;5.25;;;3.72;;
7166;SDS011;3625;51.762;14.320;2023-08-01T06:30:04;3.25;;;2.95;;
7166;SDS011;3625;51.762;14.320;2023-08-01T06:32:34;4.13;;;3.47;;
7166;SDS011;3625;51.762;14.320;2023-08-01T06:35:03;3.60;;;3.30;;
7166;SDS011;3625;51.762;14.320;2023-08-01T06:37:32;5.55;;;3.72;;
7166;SDS011;3625;51.762;14.320;2023-08-01T06:40:03;3.50;;;3.20;;
7166;SDS011;3625;51.762;14.320;2023-08-01T06:42:34;3.78;;;3.38;;
7166;SDS011;3625;51.762;14.320;2023-08-01T06:45:02;4.15;;;3.42;;
7166;SDS011;3625;51.762;14.320;2023-08-01T06:47:32;3.80;;;3.03;;
7166;SDS011;3625;51.762;14.320;2023-08-01T06:50:00;5.57;;;3.33;;
7166;SDS011;3625;51.762;14.320;2023-08-01T06:52:29;3.83;;;3.53;;
7166;SDS011;3625;51.762;14.320;2023-08-01T06:54:57;4.80;;;3.30;;
7166;SDS011;3625;51.762;14.320;2023-08-01T06:57:28;4.25;;;3.60;;
7166;SDS011;3625;51.762;14.320;2023-08-01T06:59:57;3.60;;;3.30;;
7166;SDS011;3625;51.762;14.320;2023-08-01T07:02:25;4.40;;;3.60;;
7166;SDS011;3625;51.762;14.320;2023-08-01T07:04:54;4.38;;;3.88;;
7166;SDS011;3625;51.762;14.320;2023-08-01T07:07:23;4.50;;;3.35;;
7166;SDS011;3625;51.762;14.320;2023-08-01T07:09:51;4.65;;;3.78;;
7166;SDS011;3625;51.762;14.320;2023-08-01T07:12:20;4.15;;;3.58;;
7166;SDS011;3625;51.762;14.320;2023-08-01T07:14:50;4.45;;;4.00;;
7166;SDS011;3625;51.762;14.320;2023-08-01T07:17:19;5.13;;;3.85;;
7166;SDS011;3625;51.762;14.320;2023-08-01T07:19:47;4.50;;;4.10;;
7166;SDS011;3625;51.762;14.320;2023-08-01T07:22:16;4.90;;;4.10;;
7166;SDS011;3625;51.762;14.320;2023-08-01T07:24:46;4.78;;;4.10;;
7166;SDS011;3625;51.762;14.320;2023-08-01T07:27:15;4.40;;;4.00;;
7166;SDS011;3625;51.762;14.320;2023-08-01T07:29:43;5.32;;;4.32;;
7166;SDS011;3625;51.762;14.320;2023-08-01T07:32:13;4.30;;;3.67;;
7166;SDS011;3625;51.762;14.320;2023-08-01T07:34:42;4.85;;;4.35;;
7166;SDS011;3625;51.762;14.320;2023-08-01T07:37:10;3.53;;;3.22;;
7166;SDS011;3625;51.762;14.320;2023-08-01T07:39:39;3.65;;;3.35;;
7166;SDS011;3625;51.762;14.320;2023-08-01T07:42:08;3.60;;;3.30;;
7166;SDS011;3625;51.762;14.320;2023-08-01T07:44:36;5.32;;;3.70;;
7166;SDS011;3625;51.762;14.320;2023-08-01T07:47:05;4.00;;;3.60;;
7166;SDS011;3625;51.762;14.320;2023-08-01T07:49:35;4.85;;;3.30;;
7166;SDS011;3625;51.762;14.320;2023-08-01T07:52:04;4.15;;;3.13;;
7166;SDS011;3625;51.762;14.320;2023-08-01T07:54:37;4.68;;;3.35;;
7166;SDS011;3625;51.762;14.320;2023-08-01T07:57:06;4.88;;;3.20;;
7166;SDS011;3625;51.762;14.320;2023-08-01T07:59:48;3.20;;;2.90;;
7166;SDS011;3625;51.762;14.320;2023-08-01T08:02:17;5.82;;;3.20;;
7166;SDS011;3625;51.762;14.320;2023-08-01T08:04:47;4.13;;;2.95;;
7166;SDS011;3625;51.762;14.320;2023-08-01T08:07:16;6.57;;;3.20;;
7166;SDS011;3625;51.762;14.320;2023-08-01T08:09:45;2.80;;;2.60;;
7166;SDS011;3625;51.762;14.320;2023-08-01T08:12:13;5.00;;;2.95;;
7166;SDS011;3625;51.762;14.320;2023-08-01T08:14:42;4.57;;;2.40;;
7166;SDS011;3625;51.762;14.320;2023-08-01T08:17:10;4.80;;;2.85;;
7166;SDS011;3625;51.762;14.320;2023-08-01T08:19:39;3.88;;;2.60;;
7166;SDS011;3625;51.762;14.320;2023-08-01T08:22:09;3.33;;;2.70;;
7166;SDS011;3625;51.762;14.320;2023-08-01T08:24:38;2.80;;;2.53;;
7166;SDS011;3625;51.762;14.320;2023-08-01T08:27:06;6.18;;;2.72;;
7166;SDS011;3625;51.762;14.320;2023-08-01T08:29:35;5.35;;;2.60;;
7166;SDS011;3625;51.762;14.320;2023-08-01T08:32:04;2.55;;;2.30;;
7166;SDS011;3625;51.762;14.320;2023-08-01T08:34:34;5.55;;;2.90;;
7166;SDS011;3625;51.762;14.320;2023-08-01T08:37:03;3.42;;;2.30;;
7166;SDS011;3625;51.762;14.320;2023-08-01T08:39:33;4.00;;;2.35;;
7166;SDS011;3625;51.762;14.320;2023-08-01T08:42:02;2.47;;;1.92;;
7166;SDS011;3625;51.762;14.320;2023-08-01T08:44:37;2.25;;;1.80;;
7166;SDS011;3625;51.762;14.320;2023-08-01T08:47:11;3.38;;;2.10;;
7166;SDS011;3625;51.762;14.320;2023-08-01T08:49:43;2.78;;;2.30;;
7166;SDS011;3625;51.762;14.320;2023-08-01T08:52:13;3.70;;;2.30;;
7166;SDS011;3625;51.762;14.320;2023-08-01T08:54:46;3.20;;;1.70;;
7166;SDS011;3625;51.762;14.320;2023-08-01T08:57:15;2.00;;;1.83;;
7166;SDS011;3625;51.762;14.320;2023-08-01T08:59:44;2.17;;;1.90;;
7166;SDS011;3625;51.762;14.320;2023-08-01T09:02:15;1.75;;;1.65;;
7166;SDS011;3625;51.762;14.320;2023-08-01T09:04:43;1.40;;;1.27;;
7166;SDS011;3625;51.762;14.320;2023-08-01T09:07:12;1.52;;;1.20;;
7166;SDS011;3625;51.762;14.320;2023-08-01T09:09:48;2.75;;;1.40;;
7166;SDS011;3625;51.762;14.320;2023-08-01T09:12:17;2.08;;;1.30;;
7166;SDS011;3625;51.762;14.320;2023-08-01T09:14:45;2.72;;;1.40;;
7166;SDS011;3625;51.762;14.320;2023-08-01T09:17:17;2.10;;;1.33;;
7166;SDS011;3625;51.762;14.320;2023-08-01T09:19:46;1.90;;;1.42;;
7166;SDS011;3625;51.762;14.320;2023-08-01T09:22:16;2.20;;;2.00;;
7166;SDS011;3625;51.762;14.320;2023-08-01T09:24:52;2.08;;;1.27;;
7166;SDS011;3625;51.762;14.320;2023-08-01T09:27:21;1.20;;;1.10;;
7166;SDS011;3625;51.762;14.320;2023-08-01T09:29:50;1.50;;;1.40;;
7166;SDS011;3625;51.762;14.320;2023-08-01T09:32:21;1.50;;;1.25;;
7166;SDS011;3625;51.762;14.320;2023-08-01T09:34:57;1.73;;;1.25;;
7166;SDS011;3625;51.762;14.320;2023-08-01T09:37:27;1.25;;;1.15;;
7166;SDS011;3625;51.762;14.320;2023-08-01T09:40:09;1.77;;;1.30;;
7166;SDS011;3625;51.762;14.320;2023-08-01T09:42:38;1.48;;;1.38;;
7166;SDS011;3625;51.762;14.320;2023-08-01T09:45:14;1.92;;;1.50;;
7166;SDS011;3625;51.762;14.320;2023-08-01T09:47:44;1.25;;;1.15;;
7166;SDS011;3625;51.762;14.320;2023-08-01T09:50:19;1.63;;;1.20;;
7166;SDS011;3625;51.762;14.320;2023-08-01T09:52:52;1.40;;;1.30;;
7166;SDS011;3625;51.762;14.320;2023-08-01T09:55:24;1.30;;;1.20;;
7166;SDS011;3625;51.762;14.320;2023-08-01T09:57:59;1.30;;;1.20;;
7166;SDS011;3625;51.762;14.320;2023-08-01T10:00:28;2.47;;;1.30;;
7166;SDS011;3625;51.762;14.320;2023-08-01T10:02:58;1.58;;;1.40;;
7166;SDS011;3625;51.762;14.320;2023-08-01T10:05:29;1.67;;;1.30;;
7166;SDS011;3625;51.762;14.320;2023-08-01T10:08:02;1.85;;;1.30;;
7166;SDS011;3625;51.762;14.320;2023-08-01T10:10:33;1.27;;;1.10;;
7166;SDS011;3625;51.762;14.320;2023-08-01T10:13:02;2.00;;;1.20;;
7166;SDS011;3625;51.762;14.320;2023-08-01T10:15:32;2.00;;;1.23;;
7166;SDS011;3625;51.762;14.320;2023-08-01T10:18:01;1.35;;;1.20;;
7166;SDS011;3625;51.762;14.320;2023-08-01T10:20:31;1.73;;;1.40;;
7166;SDS011;3625;51.762;14.320;2023-08-01T10:23:02;1.30;;;1.10;;
7166;SDS011;3625;51.762;14.320;2023-08-01T10:25:34;2.13;;;1.52;;
7166;SDS011;3625;51.762;14.320;2023-08-01T10:28:04;1.30;;;1.20;;
7166;SDS011;3625;51.762;14.320;2023-08-01T10:30:33;1.45;;;1.35;;
7166;SDS011;3625;51.762;14.320;2023-08-01T10:33:02;1.50;;;1.40;;
7166;SDS011;3625;51.762;14.320;2023-08-01T10:35:31;2.40;;;1.30;;
7166;SDS011;3625;51.762;14.320;2023-08-01T10:38:04;1.70;;;1.33;;
7166;SDS011;3625;51.762;14.320;2023-08-01T10:40:36;1.30;;;1.20;;
7166;SDS011;3625;51.762;14.320;2023-08-01T10:43:08;1.40;;;1.30;;
7166;SDS011;3625;51.762;14.320;2023-08-01T10:45:48;2.10;;;1.20;;
7166;SDS011;3625;51.762;14.320;2023-08-01T10:48:28;1.88;;;1.40;;
7166;SDS011;3625;51.762;14.320;2023-08-01T10:50:57;1.20;;;1.02;;
7166;SDS011;3625;51.762;14.320;2023-08-01T10:53:26;1.45;;;1.00;;
7166;SDS011;3625;51.762;14.320;2023-08-01T10:56:16;1.23;;;1.10;;
7166;SDS011;3625;51.762;14.320;2023-08-01T10:58:46;0.90;;;0.90;;
7166;SDS011;3625;51.762;14.320;2023-08-01T11:01:15;1.23;;;1.00;;
7166;SDS011;3625;51.762;14.320;2023-08-01T11:03:44;0.98;;;0.90;;
7166;SDS011;3625;51.762;14.320;2023-08-01T11:06:17;1.73;;;1.00;;
7166;SDS011;3625;51.762;14.320;2023-08-01T11:08:46;0.75;;;0.75;;
7166;SDS011;3625;51.762;14.320;2023-08-01T11:11:16;1.00;;;0.90;;
7166;SDS011;3625;51.762;14.320;2023-08-01T11:13:51;1.20;;;0.88;;
7166;SDS011;3625;51.762;14.320;2023-08-01T11:16:23;1.10;;;1.00;;
7166;SDS011;3625;51.762;14.320;2023-08-01T11:18:52;1.00;;;1.00;;
7166;SDS011;3625;51.762;14.320;2023-08-01T11:21:27;1.27;;;1.10;;
7166;SDS011;3625;51.762;14.320;2023-08-01T11:23:56;1.10;;;0.98;;
7166;SDS011;3625;51.762;14.320;2023-08-01T11:26:26;1.27;;;1.00;;
7166;SDS011;3625;51.762;14.320;2023-08-01T11:28:54;1.10;;;1.00;;
7166;SDS011;3625;51.762;14.320;2023-08-01T11:31:23;0.95;;;0.88;;
7166;SDS011;3625;51.762;14.320;2023-08-01T11:33:55;0.90;;;0.80;;
7166;SDS011;3625;51.762;14.320;2023-08-01T11:36:25;0.73;;;0.73;;
7166;SDS011;3625;51.762;14.320;2023-08-01T11:38:56;0.95;;;0.88;;
7166;SDS011;3625;51.762;14.320;2023-08-01T11:41:28;1.20;;;0.90;;
7166;SDS011;3625;51.762;14.320;2023-08-01T11:44:01;1.10;;;0.90;;
7166;SDS011;3625;51.762;14.320;2023-08-01T11:46:33;0.82;;;0.82;;
7166;SDS011;3625;51.762;14.320;2023-08-01T11:49:02;2.38;;;1.20;;
7166;SDS011;3625;51.762;14.320;2023-08-01T11:51:38;0.90;;;0.90;;
7166;SDS011;3625;51.762;14.320;2023-08-01T11:54:08;1.67;;;1.00;;
7166;SDS011;3625;51.762;14.320;2023-08-01T11:56:39;0.85;;;0.80;;
7166;SDS011;3625;51.762;14.320;2023-08-01T11:59:11;2.03;;;0.90;;
7166;SDS011;3625;51.762;14.320;2023-08-01T12:01:42;2.15;;;1.10;;
7166;SDS011;3625;51.762;14.320;2023-08-01T12:04:23;1.63;;;0.95;;
7166;SDS011;3625;51.762;14.320;2023-08-01T12:06:52;0.90;;;0.90;;
7166;SDS011;3625;51.762;14.320;2023-08-01T12:09:22;1.00;;;0.98;;
7166;SDS011;3625;51.762;14.320;2023-08-01T12:11:59;0.90;;;0.90;;
7166;SDS011;3625;51.762;14.320;2023-08-01T12:14:28;1.08;;;0.98;;
7166;SDS011;3625;51.762;14.320;2023-08-01T12:16:59;1.65;;;0.85;;
7166;SDS011;3625;51.762;14.320;2023-08-01T12:19:28;1.00;;;0.90;;
7166;SDS011;3625;51.762;14.320;2023-08-01T12:21:56;0.80;;;0.80;;
7166;SDS011;3625;51.762;14.320;2023-08-01T12:24:25;1.50;;;1.05;;
7166;SDS011;3625;51.762;14.320;2023-08-01T12:26:54;1.80;;;0.90;;
7166;SDS011;3625;51.762;14.320;2023-08-01T12:29:24;1.30;;;0.82;;
7166;SDS011;3625;51.762;14.320;2023-08-01T12:31:52;0.80;;;0.80;;
7166;SDS011;3625;51.762;14.320;2023-08-01T12:34:21;1.08;;;0.90;;
7166;SDS011;3625;51.762;14.320;2023-08-01T12:36:50;1.08;;;0.90;;
7166;SDS011;3625;51.762;14.320;2023-08-01T12:39:19;1.00;;;0.80;;
7166;SDS011;3625;51.762;14.320;2023-08-01T12:41:50;0.90;;;0.90;;
7166;SDS011;3625;51.762;14.320;2023-08-01T12:44:23;1.10;;;0.70;;
7166;SDS011;3625;51.762;14.320;2023-08-01T12:46:54;0.80;;;0.77;;
7166;SDS011;3625;51.762;14.320;2023-08-01T12:49:23;0.80;;;0.80;;
7166;SDS011;3625;51.762;14.320;2023-08-01T12:51:52;1.17;;;0.80;;
7166;SDS011;3625;51.762;14.320;2023-08-01T12:54:20;0.95;;;0.73;;
7166;SDS011;3625;51.762;14.320;2023-08-01T12:56:52;0.82;;;0.60;;
7166;SDS011;3625;51.762;14.320;2023-08-01T12:59:26;0.85;;;0.82;;
7166;SDS011;3625;51.762;14.320;2023-08-01T13:01:57;1.45;;;0.80;;
7166;SDS011;3625;51.762;14.320;2023-08-01T13:04:26;0.70;;;0.70;;
7166;SDS011;3625;51.762;14.320;2023-08-01T13:06:55;0.73;;;0.70;;
7166;SDS011;3625;51.762;14.320;2023-08-01T13:09:24;0.70;;;0.70;;
7166;SDS011;3625;51.762;14.320;2023-08-01T13:11:54;0.70;;;0.70;;
7166;SDS011;3625;51.762;14.320;2023-08-01T13:14:23;0.85;;;0.85;;
7166;SDS011;3625;51.762;14.320;2023-08-01T13:16:55;1.10;;;1.00;;
7166;SDS011;3625;51.762;14.320;2023-08-01T13:19:24;0.82;;;0.82;;
7166;SDS011;3625;51.762;14.320;2023-08-01T13:21:53;0.90;;;0.90;;
7166;SDS011;3625;51.762;14.320;2023-08-01T13:24:22;0.73;;;0.73;;
7166;SDS011;3625;51.762;14.320;2023-08-01T13:26:50;0.73;;;0.70;;
7166;SDS011;3625;51.762;14.320;2023-08-01T13:29:19;0.80;;;0.80;;
7166;SDS011;3625;51.762;14.320;2023-08-01T13:31:49;1.23;;;0.70;;
7166;SDS011;3625;51.762;14.320;2023-08-01T13:34:18;0.85;;;0.80;;
7166;SDS011;3625;51.762;14.320;2023-08-01T13:36:46;0.93;;;0.80;;
7166;SDS011;3625;51.762;14.320;2023-08-01T13:39:14;0.82;;;0.65;;
7166;SDS011;3625;51.762;14.320;2023-08-01T13:41:43;0.60;;;0.60;;
7166;SDS011;3625;51.762;14.320;2023-08-01T13:44:12;0.70;;;0.70;;
7166;SDS011;3625;51.762;14.320;2023-08-01T13:46:40;1.00;;;0.70;;
7166;SDS011;3625;51.762;14.320;2023-08-01T13:49:11;0.70;;;0.70;;
7166;SDS011;3625;51.762;14.320;2023-08-01T13:51:40;0.70;;;0.70;;
7166;SDS011;3625;51.762;14.320;2023-08-01T13:54:09;0.73;;;0.73;;
7166;SDS011;3625;51.762;14.320;2023-08-01T13:56:38;0.80;;;0.80;;
7166;SDS011;3625;51.762;14.320;2023-08-01T13:59:07;0.70;;;0.70;;
7166;SDS011;3625;51.762;14.320;2023-08-01T14:01:35;0.80;;;0.80;;
7166;SDS011;3625;51.762;14.320;2023-08-01T14:04:04;1.48;;;0.80;;
7166;SDS011;3625;51.762;14.320;2023-08-01T14:06:34;0.90;;;0.90;;
7166;SDS011;3625;51.762;14.320;2023-08-01T14:09:03;0.90;;;0.90;;
7166;SDS011;3625;51.762;14.320;2023-08-01T14:11:32;1.08;;;0.98;;
7166;SDS011;3625;51.762;14.320;2023-08-01T14:14:00;0.85;;;0.85;;
7166;SDS011;3625;51.762;14.320;2023-08-01T14:16:29;1.10;;;1.00;;
7166;SDS011;3625;51.762;14.320;2023-08-01T14:18:59;1.35;;;0.80;;
7166;SDS011;3625;51.762;14.320;2023-08-01T14:21:27;0.95;;;0.95;;
7166;SDS011;3625;51.762;14.320;2023-08-01T14:23:57;1.75;;;1.00;;
7166;SDS011;3625;51.762;14.320;2023-08-01T14:26:26;1.00;;;0.90;;
7166;SDS011;3625;51.762;14.320;2023-08-01T14:28:56;1.13;;;1.10;;
7166;SDS011;3625;51.762;14.320;2023-08-01T14:31:24;1.50;;;1.40;;
7166;SDS011;3625;51.762;14.320;2023-08-01T14:33:53;1.20;;;1.10;;
7166;SDS011;3625;51.762;14.320;2023-08-01T14:36:22;1.40;;;1.30;;
7166;SDS011;3625;51.762;14.320;2023-08-01T14:38:50;1.40;;;1.17;;
7166;SDS011;3625;51.762;14.320;2023-08-01T14:41:25;1.20;;;1.10;;
7166;SDS011;3625;51.762;14.320;2023-08-01T14:44:13;3.28;;;1.60;;
7166;SDS011;3625;51.762;14.320;2023-08-01T14:46:42;1.38;;;1.27;;
7166;SDS011;3625;51.762;14.320;2023-08-01T14:49:10;1.83;;;1.20;;
7166;SDS011;3625;51.762;14.320;2023-08-01T14:51:39;2.22;;;1.48;;
7166;SDS011;3625;51.762;14.320;2023-08-01T14:54:08;1.40;;;1.30;;
7166;SDS011;3625;51.762;14.320;2023-08-01T14:56:42;1.40;;;1.30;;
7166;SDS011;3625;51.762;14.320;2023-08-01T14:59:11;2.17;;;1.30;;
7166;SDS011;3625;51.762;14.320;2023-08-01T15:01:40;1.60;;;1.50;;
7166;SDS011;3625;51.762;14.320;2023-08-01T15:04:08;1.75;;;1.63;;
7166;SDS011;3625;51.762;14.320;2023-08-01T15:06:37;1.60;;;1.50;;
7166;SDS011;3625;51.762;14.320;2023-08-01T15:09:06;1.95;;;1.75;;
7166;SDS011;3625;51.762;14.320;2023-08-01T15:11:37;2.00;;;1.50;;
7166;SDS011;3625;51.762;14.320;2023-08-01T15:14:07;1.63;;;1.40;;
7166;SDS011;3625;51.762;14.320;2023-08-01T15:16:36;2.45;;;1.80;;
7166;SDS011;3625;51.762;14.320;2023-08-01T15:19:06;1.60;;;1.50;;
7166;SDS011;3625;51.762;14.320;2023-08-01T15:21:34;1.50;;;1.40;;